Thunder radar more information blitzortung!


Radar de pluja more information rain snow radar


Visita la nostra xarxa de llocs de meteo:

Template documentation
and downloads

And another site



No particular awareness of the weather is required.    There are no Weather-warnings

Pagina Historial Weather Underground text

Diari Resum Octubre 4, 2017 Unitats:  Tant    Imperial   Mètric
« Previous Dia
SegĂźent Dia »
Diari Setmana Mensual Anual Personalitzada
  Maxima: Minima: Media:
Temperatura: TemperatureC °F /  -17.8 °C 16.4 °F /  -8.7 °C 20 °F /  -6.7 °C
Punt de rosada: DewpointC °F /  -17.8 °C 14.5 °F /  -9.7 °C 16.4 °F /  -8.7 °C
Humitat: Humidity % 66 % 80 %
Wind Speed: WindSpeedKMH mph /  0 km/h - 3.5 mph /  5.6 km/h
RĂ fegues de vent: WindSpeedGustKMH mph /  0 km/h - -
Vent:- - East
Pression baro: PressurehPa in /  0 hPa 1021.9 in /  34601.5 hPa -
Precipitacions: 0.0 in /  0 mm    
Historical Graphs
 
 
Dades de taula per Octubre 4, 2017
Temps Temperatura Punt de rosada Pression baro Vent Wind Speed RĂ fegues de vent Humitat Rainfall Rate (Hourly)
TemperatureC °F /  -17.8 °C DewpointC °F /  -17.8 °C PressurehPa in /  0 hPa Calm     Humidity % HourlyPrecipMM in /  0 mm
00:00 19.1 °F /  -7.2 °C 15.9 °F /  -8.9 °C 1022.9 in /  34635.4 hPa Calm     82 % 0.0 in /  0 mm
00:05 19.0 °F /  -7.2 °C 15.8 °F /  -9 °C 1022.9 in /  34635.4 hPa SW 3.7 mph /  6 km/h 3.7 mph /  6 km/h 82 % 0.0 in /  0 mm
00:15 17.1 °F /  -8.3 °C 14.9 °F /  -9.5 °C 1022.9 in /  34635.4 hPa Calm     87 % 0.0 in /  0 mm
00:25 17.1 °F /  -8.3 °C 14.9 °F /  -9.5 °C 1022.9 in /  34635.4 hPa Calm   3.2 mph /  5.1 km/h 87 % 0.0 in /  0 mm
00:35 17.0 °F /  -8.3 °C 14.8 °F /  -9.6 °C 1022.9 in /  34635.4 hPa Calm   1.6 mph /  2.6 km/h 87 % 0.0 in /  0 mm
00:45 16.9 °F /  -8.4 °C 14.7 °F /  -9.6 °C 1022.9 in /  34635.4 hPa SSW 1.6 mph /  2.6 km/h 3.2 mph /  5.1 km/h 87 % 0.0 in /  0 mm
00:55 16.8 °F /  -8.4 °C 14.6 °F /  -9.7 °C 1022.9 in /  34635.4 hPa SW 3.2 mph /  5.1 km/h 3.2 mph /  5.1 km/h 87 % 0.0 in /  0 mm
01:05 16.7 °F /  -8.5 °C 14.5 °F /  -9.7 °C 1022.9 in /  34635.4 hPa SW 1.6 mph /  2.6 km/h 3.2 mph /  5.1 km/h 87 % 0.0 in /  0 mm
01:15 16.7 °F /  -8.5 °C 14.7 °F /  -9.6 °C 1022.9 in /  34635.4 hPa SW 1.6 mph /  2.6 km/h 3.2 mph /  5.1 km/h 88 % 0.0 in /  0 mm
01:25 16.8 °F /  -8.4 °C 14.8 °F /  -9.6 °C 1022.9 in /  34635.4 hPa Calm     88 % 0.0 in /  0 mm
01:35 16.8 °F /  -8.4 °C 14.8 °F /  -9.6 °C 1022.9 in /  34635.4 hPa WSW 1.6 mph /  2.6 km/h 3.2 mph /  5.1 km/h 88 % 0.0 in /  0 mm
01:45 16.8 °F /  -8.4 °C 14.8 °F /  -9.6 °C 1022.9 in /  34635.4 hPa Calm   1.6 mph /  2.6 km/h 88 % 0.0 in /  0 mm
01:55 16.7 °F /  -8.5 °C 14.7 °F /  -9.6 °C 1022.9 in /  34635.4 hPa Calm   1.6 mph /  2.6 km/h 88 % 0.0 in /  0 mm
02:05 16.7 °F /  -8.5 °C 14.9 °F /  -9.5 °C 1022.9 in /  34635.4 hPa Calm     89 % 0.0 in /  0 mm
02:15 16.7 °F /  -8.5 °C 14.9 °F /  -9.5 °C 1022.9 in /  34635.4 hPa Calm     89 % 0.0 in /  0 mm
02:25 16.7 °F /  -8.5 °C 14.9 °F /  -9.5 °C 1022.9 in /  34635.4 hPa Calm     89 % 0.0 in /  0 mm
02:35 16.7 °F /  -8.5 °C 14.9 °F /  -9.5 °C 1022.9 in /  34635.4 hPa Calm     89 % 0.0 in /  0 mm
02:45 16.7 °F /  -8.5 °C 14.9 °F /  -9.5 °C 1023.9 in /  34669.3 hPa Calm     89 % 0.0 in /  0 mm
02:55 16.6 °F /  -8.6 °C 14.8 °F /  -9.6 °C 1022.9 in /  34635.4 hPa Calm     89 % 0.0 in /  0 mm
03:05 16.5 °F /  -8.6 °C 14.7 °F /  -9.6 °C 1022.9 in /  34635.4 hPa Calm     89 % 0.0 in /  0 mm
03:15 16.4 °F /  -8.7 °C 14.6 °F /  -9.7 °C 1022.9 in /  34635.4 hPa Calm     89 % 0.0 in /  0 mm
03:25 16.4 °F /  -8.7 °C 14.8 °F /  -9.6 °C 1023.9 in /  34669.3 hPa Calm     90 % 0.0 in /  0 mm
03:35 16.5 °F /  -8.6 °C 14.8 °F /  -9.6 °C 1023.9 in /  34669.3 hPa Calm     90 % 0.0 in /  0 mm
03:45 16.6 °F /  -8.6 °C 14.9 °F /  -9.5 °C 1023.9 in /  34669.3 hPa Calm     90 % 0.0 in /  0 mm
03:55 17.2 °F /  -8.2 °C 15.7 °F /  -9.1 °C 1023.9 in /  34669.3 hPa Calm     91 % 0.0 in /  0 mm
04:05 17.7 °F /  -7.9 °C 16.1 °F /  -8.8 °C 1023.9 in /  34669.3 hPa Calm     90 % 0.0 in /  0 mm
04:15 18.0 °F /  -7.8 °C 16.0 °F /  -8.9 °C 1023.9 in /  34669.3 hPa East 1.6 mph /  2.6 km/h 4.8 mph /  7.7 km/h 88 % 0.0 in /  0 mm
04:25 18.4 °F /  -7.6 °C 16.2 °F /  -8.8 °C 1023.9 in /  34669.3 hPa Calm   4.8 mph /  7.7 km/h 87 % 0.0 in /  0 mm
04:35 18.2 °F /  -7.7 °C 15.6 °F /  -9.1 °C 1023.9 in /  34669.3 hPa SSE 1.6 mph /  2.6 km/h 3.2 mph /  5.1 km/h 85 % 0.0 in /  0 mm
04:45 18.4 °F /  -7.6 °C 15.8 °F /  -9 °C 1023.9 in /  34669.3 hPa Calm   1.6 mph /  2.6 km/h 85 % 0.0 in /  0 mm
04:55 19.6 °F /  -6.9 °C 16.8 °F /  -8.4 °C 1023.9 in /  34669.3 hPa NW 1.6 mph /  2.6 km/h 3.2 mph /  5.1 km/h 84 % 0.0 in /  0 mm
05:05 20.0 °F /  -6.7 °C 16.8 °F /  -8.4 °C 1023.9 in /  34669.3 hPa NNE 1.6 mph /  2.6 km/h 3.2 mph /  5.1 km/h 82 % 0.0 in /  0 mm
05:30 19.7 °F /  -6.8 °C 15.9 °F /  -8.9 °C 1024.9 in /  34703.1 hPa ENE 1.6 mph /  2.6 km/h 3.2 mph /  5.1 km/h 79 % 0.0 in /  0 mm
05:40 19.9 °F /  -6.7 °C 16.2 °F /  -8.8 °C 1024.9 in /  34703.1 hPa ENE 1.6 mph /  2.6 km/h 3.2 mph /  5.1 km/h 79 % 0.0 in /  0 mm
05:50 20.0 °F /  -6.7 °C 16.1 °F /  -8.8 °C 1024.9 in /  34703.1 hPa East 1.6 mph /  2.6 km/h 4.8 mph /  7.7 km/h 78 % 0.0 in /  0 mm
06:00 20.1 °F /  -6.6 °C 16.2 °F /  -8.8 °C 1024.9 in /  34703.1 hPa ENE 1.6 mph /  2.6 km/h 3.2 mph /  5.1 km/h 78 % 0.0 in /  0 mm
06:10 20.3 °F /  -6.5 °C 16.3 °F /  -8.7 °C 1024.9 in /  34703.1 hPa NE 1.6 mph /  2.6 km/h 3.2 mph /  5.1 km/h 78 % 0.0 in /  0 mm
06:20 20.5 °F /  -6.4 °C 16.6 °F /  -8.6 °C 1026.0 in /  34740.4 hPa East 4.8 mph /  7.7 km/h 6.4 mph /  10.3 km/h 78 % 0.0 in /  0 mm
06:30 20.9 °F /  -6.2 °C 16.9 °F /  -8.4 °C 1024.9 in /  34703.1 hPa ENE 3.2 mph /  5.1 km/h 4.8 mph /  7.7 km/h 78 % 0.0 in /  0 mm
06:40 21.4 °F /  -5.9 °C 17.2 °F /  -8.2 °C 1024.9 in /  34703.1 hPa ENE 3.2 mph /  5.1 km/h 6.4 mph /  10.3 km/h 77 % 0.0 in /  0 mm
06:50 21.8 °F /  -5.7 °C 17.4 °F /  -8.1 °C 1024.9 in /  34703.1 hPa ENE 4.8 mph /  7.7 km/h 6.4 mph /  10.3 km/h 76 % 0.0 in /  0 mm
07:00 22.3 °F /  -5.4 °C 17.9 °F /  -7.8 °C 1026.0 in /  34740.4 hPa ENE 3.2 mph /  5.1 km/h 6.4 mph /  10.3 km/h 76 % 0.0 in /  0 mm
07:10 22.8 °F /  -5.1 °C 17.7 °F /  -7.9 °C 1026.0 in /  34740.4 hPa ESE 4.8 mph /  7.7 km/h 9.7 mph /  15.6 km/h 73 % 0.0 in /  0 mm
07:20 23.2 °F /  -4.9 °C 18.1 °F /  -7.7 °C 1024.9 in /  34703.1 hPa ESE 1.6 mph /  2.6 km/h 4.8 mph /  7.7 km/h 73 % 0.0 in /  0 mm
07:30 22.8 °F /  -5.1 °C 17.7 °F /  -7.9 °C 1024.9 in /  34703.1 hPa East 8.0 mph /  12.9 km/h 11.3 mph /  18.2 km/h 73 % 0.0 in /  0 mm
07:40 23.2 °F /  -4.9 °C 17.9 °F /  -7.8 °C 1024.9 in /  34703.1 hPa ENE 4.8 mph /  7.7 km/h 6.4 mph /  10.3 km/h 72 % 0.0 in /  0 mm
07:50 23.3 °F /  -4.8 °C 17.7 °F /  -7.9 °C 1024.9 in /  34703.1 hPa ENE 3.2 mph /  5.1 km/h 8.0 mph /  12.9 km/h 71 % 0.0 in /  0 mm
08:00 22.9 °F /  -5.1 °C 17.6 °F /  -8 °C 1026.0 in /  34740.4 hPa ENE 4.8 mph /  7.7 km/h 9.7 mph /  15.6 km/h 72 % 0.0 in /  0 mm
08:10 22.9 °F /  -5.1 °C 17.6 °F /  -8 °C 1026.0 in /  34740.4 hPa ENE 8.0 mph /  12.9 km/h 8.0 mph /  12.9 km/h 72 % 0.0 in /  0 mm
08:20 23.1 °F /  -4.9 °C 17.8 °F /  -7.9 °C 1024.9 in /  34703.1 hPa ENE 4.8 mph /  7.7 km/h 6.4 mph /  10.3 km/h 72 % 0.0 in /  0 mm
08:30 23.7 °F /  -4.6 °C 18.1 °F /  -7.7 °C 1024.9 in /  34703.1 hPa East 4.8 mph /  7.7 km/h 11.3 mph /  18.2 km/h 71 % 0.0 in /  0 mm
08:40 23.6 °F /  -4.7 °C 17.8 °F /  -7.9 °C 1024.9 in /  34703.1 hPa East 11.3 mph /  18.2 km/h 12.9 mph /  20.8 km/h 70 % 0.0 in /  0 mm
08:50 23.7 °F /  -4.6 °C 17.9 °F /  -7.8 °C 1024.9 in /  34703.1 hPa ESE 9.7 mph /  15.6 km/h 14.5 mph /  23.3 km/h 70 % 0.0 in /  0 mm
09:00 24.3 °F /  -4.3 °C 18.2 °F /  -7.7 °C 1024.9 in /  34703.1 hPa ESE 4.8 mph /  7.7 km/h 9.7 mph /  15.6 km/h 69 % 0.0 in /  0 mm
09:10 23.8 °F /  -4.6 °C 17.8 °F /  -7.9 °C 1024.9 in /  34703.1 hPa East 8.0 mph /  12.9 km/h 12.9 mph /  20.8 km/h 69 % 0.0 in /  0 mm
09:20 24.0 °F /  -4.4 °C 17.7 °F /  -7.9 °C 1023.9 in /  34669.3 hPa ESE 9.7 mph /  15.6 km/h 12.9 mph /  20.8 km/h 68 % 0.0 in /  0 mm
09:30 24.6 °F /  -4.1 °C 18.1 °F /  -7.7 °C 1023.9 in /  34669.3 hPa ESE 3.2 mph /  5.1 km/h 11.3 mph /  18.2 km/h 67 % 0.0 in /  0 mm
09:40 24.2 °F /  -4.3 °C 17.4 °F /  -8.1 °C 1023.9 in /  34669.3 hPa ESE 4.8 mph /  7.7 km/h 6.4 mph /  10.3 km/h 66 % 0.0 in /  0 mm
09:50 23.6 °F /  -4.7 °C 17.3 °F /  -8.2 °C 1023.9 in /  34669.3 hPa SE 11.3 mph /  18.2 km/h 14.5 mph /  23.3 km/h 68 % 0.0 in /  0 mm
10:00 23.1 °F /  -4.9 °C 17.1 °F /  -8.3 °C 1023.9 in /  34669.3 hPa ESE 11.3 mph /  18.2 km/h 17.7 mph /  28.5 km/h 69 % 0.0 in /  0 mm
10:10 22.9 °F /  -5.1 °C 17.3 °F /  -8.2 °C 1023.9 in /  34669.3 hPa ESE 11.3 mph /  18.2 km/h 16.1 mph /  25.9 km/h 71 % 0.0 in /  0 mm
10:12 19.6 °F /  -6.9 °C 16.1 °F /  -8.8 °C 1023.9 in /  34669.3 hPa NE 4.7 mph /  7.6 km/h 4.7 mph /  7.6 km/h 80 % 0.0 in /  0 mm
10:13 19.6 °F /  -6.9 °C 16.1 °F /  -8.8 °C 1023.9 in /  34669.3 hPa NE 5.6 mph /  9 km/h 5.6 mph /  9 km/h 80 % 0.0 in /  0 mm
10:18 19.6 °F /  -6.9 °C 16.1 °F /  -8.8 °C 1024.9 in /  34703.1 hPa ENE 3.7 mph /  6 km/h 3.7 mph /  6 km/h 80 % 0.0 in /  0 mm
10:20 23.1 °F /  -4.9 °C 17.6 °F /  -8 °C 1023.9 in /  34669.3 hPa East 8.0 mph /  12.9 km/h 14.5 mph /  23.3 km/h 71 % 0.0 in /  0 mm
10:23 19.7 °F /  -6.8 °C 16.2 °F /  -8.8 °C 1024.9 in /  34703.1 hPa ENE 2.6 mph /  4.2 km/h 3.5 mph /  5.6 km/h 80 % 0.0 in /  0 mm
10:28 19.7 °F /  -6.8 °C 16.2 °F /  -8.8 °C 1024.9 in /  34703.1 hPa ENE 2.6 mph /  4.2 km/h 3.5 mph /  5.6 km/h 80 % 0.0 in /  0 mm
10:30 23.0 °F /  -5 °C 17.2 °F /  -8.2 °C 1023.9 in /  34669.3 hPa ESE 12.9 mph /  20.8 km/h 12.9 mph /  20.8 km/h 70 % 0.0 in /  0 mm
10:33 19.7 °F /  -6.8 °C 16.2 °F /  -8.8 °C 1024.9 in /  34703.1 hPa ENE 2.6 mph /  4.2 km/h 3.5 mph /  5.6 km/h 80 % 0.0 in /  0 mm
10:38 19.7 °F /  -6.8 °C 16.2 °F /  -8.8 °C 1024.9 in /  34703.1 hPa ENE 2.6 mph /  4.2 km/h 3.5 mph /  5.6 km/h 80 % 0.0 in /  0 mm
10:40 22.6 °F /  -5.2 °C 17.3 °F /  -8.2 °C 1023.9 in /  34669.3 hPa East 8.0 mph /  12.9 km/h 9.7 mph /  15.6 km/h 72 % 0.0 in /  0 mm
10:43 19.7 °F /  -6.8 °C 16.2 °F /  -8.8 °C 1024.9 in /  34703.1 hPa ENE 2.6 mph /  4.2 km/h 3.5 mph /  5.6 km/h 80 % 0.0 in /  0 mm
10:48 19.7 °F /  -6.8 °C 16.2 °F /  -8.8 °C 1024.9 in /  34703.1 hPa ENE 2.6 mph /  4.2 km/h 3.5 mph /  5.6 km/h 80 % 0.0 in /  0 mm
10:50 22.6 °F /  -5.2 °C 17.3 °F /  -8.2 °C 1023.9 in /  34669.3 hPa East 11.3 mph /  18.2 km/h 14.5 mph /  23.3 km/h 72 % 0.0 in /  0 mm
10:53 19.7 °F /  -6.8 °C 16.2 °F /  -8.8 °C 1024.9 in /  34703.1 hPa ENE 2.6 mph /  4.2 km/h 3.5 mph /  5.6 km/h 80 % 0.0 in /  0 mm
10:58 19.7 °F /  -6.8 °C 16.2 °F /  -8.8 °C 1024.9 in /  34703.1 hPa ENE 2.6 mph /  4.2 km/h 3.5 mph /  5.6 km/h 80 % 0.0 in /  0 mm
11:00 22.6 °F /  -5.2 °C 17.3 °F /  -8.2 °C 1022.9 in /  34635.4 hPa ESE 4.8 mph /  7.7 km/h 12.9 mph /  20.8 km/h 72 % 0.0 in /  0 mm
11:03 19.7 °F /  -6.8 °C 16.2 °F /  -8.8 °C 1024.9 in /  34703.1 hPa ENE 2.6 mph /  4.2 km/h 3.5 mph /  5.6 km/h 80 % 0.0 in /  0 mm
11:08 19.7 °F /  -6.8 °C 16.2 °F /  -8.8 °C 1024.9 in /  34703.1 hPa ENE 2.6 mph /  4.2 km/h 3.5 mph /  5.6 km/h 80 % 0.0 in /  0 mm
11:10 22.4 °F /  -5.3 °C 17.1 °F /  -8.3 °C 1022.9 in /  34635.4 hPa ESE 9.7 mph /  15.6 km/h 16.1 mph /  25.9 km/h 72 % 0.0 in /  0 mm
11:13 19.7 °F /  -6.8 °C 16.2 °F /  -8.8 °C 1024.9 in /  34703.1 hPa ENE 2.6 mph /  4.2 km/h 3.5 mph /  5.6 km/h 80 % 0.0 in /  0 mm
11:18 19.7 °F /  -6.8 °C 16.2 °F /  -8.8 °C 1024.9 in /  34703.1 hPa ENE 2.6 mph /  4.2 km/h 3.5 mph /  5.6 km/h 80 % 0.0 in /  0 mm
11:20 22.4 °F /  -5.3 °C 17.1 °F /  -8.3 °C 1023.9 in /  34669.3 hPa ESE 4.8 mph /  7.7 km/h 11.3 mph /  18.2 km/h 72 % 0.0 in /  0 mm
11:23 19.7 °F /  -6.8 °C 16.2 °F /  -8.8 °C 1024.9 in /  34703.1 hPa ENE 2.6 mph /  4.2 km/h 3.5 mph /  5.6 km/h 80 % 0.0 in /  0 mm
11:28 19.7 °F /  -6.8 °C 16.2 °F /  -8.8 °C 1024.9 in /  34703.1 hPa ENE 2.6 mph /  4.2 km/h 3.5 mph /  5.6 km/h 80 % 0.0 in /  0 mm
11:30 22.1 °F /  -5.5 °C 16.8 °F /  -8.4 °C 1022.9 in /  34635.4 hPa ESE 9.7 mph /  15.6 km/h 14.5 mph /  23.3 km/h 72 % 0.0 in /  0 mm
11:33 19.7 °F /  -6.8 °C 16.2 °F /  -8.8 °C 1024.9 in /  34703.1 hPa ENE 2.6 mph /  4.2 km/h 3.5 mph /  5.6 km/h 80 % 0.0 in /  0 mm
11:38 19.7 °F /  -6.8 °C 16.2 °F /  -8.8 °C 1024.9 in /  34703.1 hPa ENE 2.6 mph /  4.2 km/h 3.5 mph /  5.6 km/h 80 % 0.0 in /  0 mm
11:40 22.1 °F /  -5.5 °C 16.8 °F /  -8.4 °C 1022.9 in /  34635.4 hPa ESE 11.3 mph /  18.2 km/h 12.9 mph /  20.8 km/h 72 % 0.0 in /  0 mm
11:43 19.7 °F /  -6.8 °C 16.2 °F /  -8.8 °C 1024.9 in /  34703.1 hPa ENE 2.6 mph /  4.2 km/h 3.5 mph /  5.6 km/h 80 % 0.0 in /  0 mm
11:48 19.7 °F /  -6.8 °C 16.2 °F /  -8.8 °C 1024.9 in /  34703.1 hPa ENE 2.6 mph /  4.2 km/h 3.5 mph /  5.6 km/h 80 % 0.0 in /  0 mm
11:53 19.7 °F /  -6.8 °C 16.2 °F /  -8.8 °C 1024.9 in /  34703.1 hPa ENE 2.6 mph /  4.2 km/h 3.5 mph /  5.6 km/h 80 % 0.0 in /  0 mm
11:58 19.7 °F /  -6.8 °C 16.2 °F /  -8.8 °C 1024.9 in /  34703.1 hPa ENE 2.6 mph /  4.2 km/h 3.5 mph /  5.6 km/h 80 % 0.0 in /  0 mm
12:03 19.7 °F /  -6.8 °C 16.2 °F /  -8.8 °C 1024.9 in /  34703.1 hPa ENE 2.6 mph /  4.2 km/h 3.5 mph /  5.6 km/h 80 % 0.0 in /  0 mm
12:08 19.7 °F /  -6.8 °C 16.2 °F /  -8.8 °C 1024.9 in /  34703.1 hPa ENE 2.6 mph /  4.2 km/h 3.5 mph /  5.6 km/h 80 % 0.0 in /  0 mm
12:13 19.7 °F /  -6.8 °C 16.2 °F /  -8.8 °C 1024.9 in /  34703.1 hPa ENE 2.6 mph /  4.2 km/h 3.5 mph /  5.6 km/h 80 % 0.0 in /  0 mm
12:18 19.7 °F /  -6.8 °C 16.2 °F /  -8.8 °C 1024.9 in /  34703.1 hPa ENE 2.6 mph /  4.2 km/h 3.5 mph /  5.6 km/h 80 % 0.0 in /  0 mm
12:23 19.7 °F /  -6.8 °C 16.2 °F /  -8.8 °C 1024.9 in /  34703.1 hPa ENE 2.6 mph /  4.2 km/h 3.5 mph /  5.6 km/h 80 % 0.0 in /  0 mm
12:28 19.7 °F /  -6.8 °C 16.2 °F /  -8.8 °C 1024.9 in /  34703.1 hPa ENE 2.6 mph /  4.2 km/h 3.5 mph /  5.6 km/h 80 % 0.0 in /  0 mm
12:33 19.7 °F /  -6.8 °C 16.2 °F /  -8.8 °C 1024.9 in /  34703.1 hPa ENE 2.6 mph /  4.2 km/h 3.5 mph /  5.6 km/h 80 % 0.0 in /  0 mm
12:38 19.7 °F /  -6.8 °C 16.2 °F /  -8.8 °C 1024.9 in /  34703.1 hPa ENE 2.6 mph /  4.2 km/h 3.5 mph /  5.6 km/h 80 % 0.0 in /  0 mm
12:43 19.7 °F /  -6.8 °C 16.2 °F /  -8.8 °C 1024.9 in /  34703.1 hPa ENE 2.6 mph /  4.2 km/h 3.5 mph /  5.6 km/h 80 % 0.0 in /  0 mm
12:48 19.7 °F /  -6.8 °C 16.2 °F /  -8.8 °C 1024.9 in /  34703.1 hPa ENE 2.6 mph /  4.2 km/h 3.5 mph /  5.6 km/h 80 % 0.0 in /  0 mm
12:53 19.7 °F /  -6.8 °C 16.2 °F /  -8.8 °C 1024.9 in /  34703.1 hPa ENE 2.6 mph /  4.2 km/h 3.5 mph /  5.6 km/h 80 % 0.0 in /  0 mm
12:58 19.7 °F /  -6.8 °C 16.2 °F /  -8.8 °C 1024.9 in /  34703.1 hPa ENE 2.6 mph /  4.2 km/h 3.5 mph /  5.6 km/h 80 % 0.0 in /  0 mm
13:03 19.7 °F /  -6.8 °C 16.2 °F /  -8.8 °C 1024.9 in /  34703.1 hPa ENE 2.6 mph /  4.2 km/h 3.5 mph /  5.6 km/h 80 % 0.0 in /  0 mm
13:08 19.7 °F /  -6.8 °C 16.2 °F /  -8.8 °C 1024.9 in /  34703.1 hPa ENE 2.6 mph /  4.2 km/h 3.5 mph /  5.6 km/h 80 % 0.0 in /  0 mm
13:13 19.7 °F /  -6.8 °C 16.2 °F /  -8.8 °C 1024.9 in /  34703.1 hPa ENE 2.6 mph /  4.2 km/h 3.5 mph /  5.6 km/h 80 % 0.0 in /  0 mm
13:23 19.7 °F /  -6.8 °C 16.2 °F /  -8.8 °C 1024.9 in /  34703.1 hPa ENE 2.6 mph /  4.2 km/h 3.5 mph /  5.6 km/h 80 % 0.0 in /  0 mm
13:28 19.7 °F /  -6.8 °C 16.2 °F /  -8.8 °C 1024.9 in /  34703.1 hPa ENE 2.6 mph /  4.2 km/h 3.5 mph /  5.6 km/h 80 % 0.0 in /  0 mm
13:33 19.7 °F /  -6.8 °C 16.2 °F /  -8.8 °C 1024.9 in /  34703.1 hPa ENE 2.6 mph /  4.2 km/h 3.5 mph /  5.6 km/h 80 % 0.0 in /  0 mm
13:38 19.7 °F /  -6.8 °C 16.2 °F /  -8.8 °C 1024.9 in /  34703.1 hPa ENE 2.6 mph /  4.2 km/h 3.5 mph /  5.6 km/h 80 % 0.0 in /  0 mm
13:43 19.7 °F /  -6.8 °C 16.2 °F /  -8.8 °C 1024.9 in /  34703.1 hPa ENE 2.6 mph /  4.2 km/h 3.5 mph /  5.6 km/h 80 % 0.0 in /  0 mm
13:48 19.7 °F /  -6.8 °C 16.2 °F /  -8.8 °C 1024.9 in /  34703.1 hPa ENE 2.6 mph /  4.2 km/h 3.5 mph /  5.6 km/h 80 % 0.0 in /  0 mm
13:53 19.7 °F /  -6.8 °C 16.2 °F /  -8.8 °C 1024.9 in /  34703.1 hPa ENE 2.6 mph /  4.2 km/h 3.5 mph /  5.6 km/h 80 % 0.0 in /  0 mm
13:58 19.7 °F /  -6.8 °C 16.2 °F /  -8.8 °C 1024.9 in /  34703.1 hPa ENE 2.6 mph /  4.2 km/h 3.5 mph /  5.6 km/h 80 % 0.0 in /  0 mm
14:03 19.7 °F /  -6.8 °C 16.2 °F /  -8.8 °C 1024.9 in /  34703.1 hPa ENE 2.6 mph /  4.2 km/h 3.5 mph /  5.6 km/h 80 % 0.0 in /  0 mm
14:08 19.7 °F /  -6.8 °C 16.2 °F /  -8.8 °C 1024.9 in /  34703.1 hPa ENE 2.6 mph /  4.2 km/h 3.5 mph /  5.6 km/h 80 % 0.0 in /  0 mm
14:13 19.7 °F /  -6.8 °C 16.2 °F /  -8.8 °C 1024.9 in /  34703.1 hPa ENE 2.6 mph /  4.2 km/h 3.5 mph /  5.6 km/h 80 % 0.0 in /  0 mm
14:18 19.7 °F /  -6.8 °C 16.2 °F /  -8.8 °C 1024.9 in /  34703.1 hPa ENE 2.6 mph /  4.2 km/h 3.5 mph /  5.6 km/h 80 % 0.0 in /  0 mm
14:23 19.7 °F /  -6.8 °C 16.2 °F /  -8.8 °C 1024.9 in /  34703.1 hPa ENE 2.6 mph /  4.2 km/h 3.5 mph /  5.6 km/h 80 % 0.0 in /  0 mm
14:28 19.7 °F /  -6.8 °C 16.2 °F /  -8.8 °C 1024.9 in /  34703.1 hPa ENE 2.6 mph /  4.2 km/h 3.5 mph /  5.6 km/h 80 % 0.0 in /  0 mm
14:33 19.7 °F /  -6.8 °C 16.2 °F /  -8.8 °C 1024.9 in /  34703.1 hPa ENE 2.6 mph /  4.2 km/h 3.5 mph /  5.6 km/h 80 % 0.0 in /  0 mm
14:38 19.7 °F /  -6.8 °C 16.2 °F /  -8.8 °C 1024.9 in /  34703.1 hPa ENE 2.6 mph /  4.2 km/h 3.5 mph /  5.6 km/h 80 % 0.0 in /  0 mm
14:43 19.7 °F /  -6.8 °C 16.2 °F /  -8.8 °C 1024.9 in /  34703.1 hPa ENE 2.6 mph /  4.2 km/h 3.5 mph /  5.6 km/h 80 % 0.0 in /  0 mm
14:48 19.7 °F /  -6.8 °C 16.2 °F /  -8.8 °C 1024.9 in /  34703.1 hPa ENE 2.6 mph /  4.2 km/h 3.5 mph /  5.6 km/h 80 % 0.0 in /  0 mm
14:53 19.7 °F /  -6.8 °C 16.2 °F /  -8.8 °C 1024.9 in /  34703.1 hPa ENE 2.6 mph /  4.2 km/h 3.5 mph /  5.6 km/h 80 % 0.0 in /  0 mm
14:58 19.7 °F /  -6.8 °C 16.2 °F /  -8.8 °C 1024.9 in /  34703.1 hPa ENE 2.6 mph /  4.2 km/h 3.5 mph /  5.6 km/h 80 % 0.0 in /  0 mm
15:03 19.7 °F /  -6.8 °C 16.2 °F /  -8.8 °C 1024.9 in /  34703.1 hPa ENE 2.6 mph /  4.2 km/h 3.5 mph /  5.6 km/h 80 % 0.0 in /  0 mm
15:08 19.7 °F /  -6.8 °C 16.2 °F /  -8.8 °C 1024.9 in /  34703.1 hPa ENE 2.6 mph /  4.2 km/h 3.5 mph /  5.6 km/h 80 % 0.0 in /  0 mm
15:13 19.7 °F /  -6.8 °C 16.2 °F /  -8.8 °C 1024.9 in /  34703.1 hPa ENE 2.6 mph /  4.2 km/h 3.5 mph /  5.6 km/h 80 % 0.0 in /  0 mm
15:18 19.7 °F /  -6.8 °C 16.2 °F /  -8.8 °C 1024.9 in /  34703.1 hPa ENE 2.6 mph /  4.2 km/h 3.5 mph /  5.6 km/h 80 % 0.0 in /  0 mm
15:23 19.7 °F /  -6.8 °C 16.2 °F /  -8.8 °C 1024.9 in /  34703.1 hPa ENE 2.6 mph /  4.2 km/h 3.5 mph /  5.6 km/h 80 % 0.0 in /  0 mm
15:28 19.7 °F /  -6.8 °C 16.2 °F /  -8.8 °C 1024.9 in /  34703.1 hPa ENE 2.6 mph /  4.2 km/h 3.5 mph /  5.6 km/h 80 % 0.0 in /  0 mm
15:33 19.7 °F /  -6.8 °C 16.2 °F /  -8.8 °C 1024.9 in /  34703.1 hPa ENE 2.6 mph /  4.2 km/h 3.5 mph /  5.6 km/h 80 % 0.0 in /  0 mm
15:38 19.7 °F /  -6.8 °C 16.2 °F /  -8.8 °C 1024.9 in /  34703.1 hPa ENE 2.6 mph /  4.2 km/h 3.5 mph /  5.6 km/h 80 % 0.0 in /  0 mm
15:43 19.7 °F /  -6.8 °C 16.2 °F /  -8.8 °C 1024.9 in /  34703.1 hPa ENE 2.6 mph /  4.2 km/h 3.5 mph /  5.6 km/h 80 % 0.0 in /  0 mm
15:48 19.7 °F /  -6.8 °C 16.2 °F /  -8.8 °C 1024.9 in /  34703.1 hPa ENE 2.6 mph /  4.2 km/h 3.5 mph /  5.6 km/h 80 % 0.0 in /  0 mm
15:53 19.7 °F /  -6.8 °C 16.2 °F /  -8.8 °C 1024.9 in /  34703.1 hPa ENE 2.6 mph /  4.2 km/h 3.5 mph /  5.6 km/h 80 % 0.0 in /  0 mm
15:59 19.7 °F /  -6.8 °C 16.2 °F /  -8.8 °C 1024.9 in /  34703.1 hPa ENE 2.6 mph /  4.2 km/h 3.5 mph /  5.6 km/h 80 % 0.0 in /  0 mm
16:04 19.7 °F /  -6.8 °C 16.2 °F /  -8.8 °C 1024.9 in /  34703.1 hPa ENE 2.6 mph /  4.2 km/h 3.5 mph /  5.6 km/h 80 % 0.0 in /  0 mm
16:09 19.7 °F /  -6.8 °C 16.2 °F /  -8.8 °C 1024.9 in /  34703.1 hPa ENE 2.6 mph /  4.2 km/h 3.5 mph /  5.6 km/h 80 % 0.0 in /  0 mm
16:14 19.7 °F /  -6.8 °C 16.2 °F /  -8.8 °C 1024.9 in /  34703.1 hPa ENE 2.6 mph /  4.2 km/h 3.5 mph /  5.6 km/h 80 % 0.0 in /  0 mm
16:19 19.7 °F /  -6.8 °C 16.2 °F /  -8.8 °C 1024.9 in /  34703.1 hPa ENE 2.6 mph /  4.2 km/h 3.5 mph /  5.6 km/h 80 % 0.0 in /  0 mm
16:24 19.7 °F /  -6.8 °C 16.2 °F /  -8.8 °C 1024.9 in /  34703.1 hPa ENE 2.6 mph /  4.2 km/h 3.5 mph /  5.6 km/h 80 % 0.0 in /  0 mm
16:29 19.7 °F /  -6.8 °C 16.2 °F /  -8.8 °C 1024.9 in /  34703.1 hPa ENE 2.6 mph /  4.2 km/h 3.5 mph /  5.6 km/h 80 % 0.0 in /  0 mm
16:34 19.7 °F /  -6.8 °C 16.2 °F /  -8.8 °C 1024.9 in /  34703.1 hPa ENE 2.6 mph /  4.2 km/h 3.5 mph /  5.6 km/h 80 % 0.0 in /  0 mm
16:40 22.1 °F /  -5.5 °C 16.8 °F /  -8.4 °C 1022.9 in /  34635.4 hPa ESE 10.3 mph /  16.6 km/h 10.8 mph /  17.4 km/h 72 % 0.0 in /  0 mm
16:45 22.3 °F /  -5.4 °C 17.2 °F /  -8.2 °C 1022.9 in /  34635.4 hPa NNE 9.3 mph /  15 km/h 9.3 mph /  15 km/h 73 % 0.0 in /  0 mm
16:50 22.3 °F /  -5.4 °C 17.2 °F /  -8.2 °C 1022.9 in /  34635.4 hPa ESE 14.8 mph /  23.8 km/h 14.8 mph /  23.8 km/h 73 % 0.0 in /  0 mm
16:55 22.2 °F /  -5.4 °C 17.1 °F /  -8.3 °C 1022.9 in /  34635.4 hPa ESE 16.7 mph /  26.9 km/h 16.7 mph /  26.9 km/h 73 % 0.0 in /  0 mm
17:00 22.1 °F /  -5.5 °C 17.1 °F /  -8.3 °C 1022.9 in /  34635.4 hPa ENE 14.8 mph /  23.8 km/h 14.8 mph /  23.8 km/h 73 % 0.0 in /  0 mm
17:05 22.2 °F /  -5.4 °C 17.1 °F /  -8.3 °C 1022.9 in /  34635.4 hPa ENE 14.8 mph /  23.8 km/h 14.8 mph /  23.8 km/h 73 % 0.0 in /  0 mm
17:10 22.3 °F /  -5.4 °C 17.2 °F /  -8.2 °C 1022.9 in /  34635.4 hPa ESE 9.7 mph /  15.6 km/h 9.7 mph /  15.6 km/h 73 % 0.0 in /  0 mm
17:15 22.2 °F /  -5.4 °C 17.1 °F /  -8.3 °C 1022.9 in /  34635.4 hPa East 9.3 mph /  15 km/h 9.7 mph /  15.6 km/h 73 % 0.0 in /  0 mm
17:20 22.2 °F /  -5.4 °C 17.1 °F /  -8.3 °C 1022.9 in /  34635.4 hPa East 13.0 mph /  20.9 km/h 13.0 mph /  20.9 km/h 73 % 0.0 in /  0 mm
17:25 22.1 °F /  -5.5 °C 17.1 °F /  -8.3 °C 1022.9 in /  34635.4 hPa East 10.3 mph /  16.6 km/h 10.3 mph /  16.6 km/h 73 % 0.0 in /  0 mm
17:30 22.0 °F /  -5.6 °C 17.2 °F /  -8.2 °C 1022.9 in /  34635.4 hPa ESE 13.0 mph /  20.9 km/h 13.0 mph /  20.9 km/h 74 % 0.0 in /  0 mm
17:35 22.0 °F /  -5.6 °C 17.2 °F /  -8.2 °C 1022.9 in /  34635.4 hPa East 9.3 mph /  15 km/h 9.3 mph /  15 km/h 74 % 0.0 in /  0 mm
17:40 22.0 °F /  -5.6 °C 17.2 °F /  -8.2 °C 1022.9 in /  34635.4 hPa East 9.3 mph /  15 km/h 9.3 mph /  15 km/h 74 % 0.0 in /  0 mm
17:45 22.0 °F /  -5.6 °C 17.2 °F /  -8.2 °C 1022.9 in /  34635.4 hPa North 9.0 mph /  14.5 km/h 9.0 mph /  14.5 km/h 74 % 0.0 in /  0 mm
17:50 21.8 °F /  -5.7 °C 17.2 °F /  -8.2 °C 1022.9 in /  34635.4 hPa ENE 9.3 mph /  15 km/h 9.3 mph /  15 km/h 75 % 0.0 in /  0 mm
17:55 21.8 °F /  -5.7 °C 17.2 °F /  -8.2 °C 1022.9 in /  34635.4 hPa SE 7.4 mph /  11.9 km/h 7.4 mph /  11.9 km/h 75 % 0.0 in /  0 mm
18:00 21.8 °F /  -5.7 °C 17.2 °F /  -8.2 °C 1022.9 in /  34635.4 hPa ENE 11.1 mph /  17.9 km/h 11.1 mph /  17.9 km/h 75 % 0.0 in /  0 mm
18:05 21.8 °F /  -5.7 °C 17.2 °F /  -8.2 °C 1022.9 in /  34635.4 hPa East 7.4 mph /  11.9 km/h 7.4 mph /  11.9 km/h 75 % 0.0 in /  0 mm
18:10 21.8 °F /  -5.7 °C 17.2 °F /  -8.2 °C 1022.9 in /  34635.4 hPa ENE 7.4 mph /  11.9 km/h 7.4 mph /  11.9 km/h 75 % 0.0 in /  0 mm
18:15 21.7 °F /  -5.7 °C 17.3 °F /  -8.2 °C 1023.9 in /  34669.3 hPa ESE 7.6 mph /  12.2 km/h 7.6 mph /  12.2 km/h 76 % 0.0 in /  0 mm
18:20 21.7 °F /  -5.7 °C 17.3 °F /  -8.2 °C 1023.9 in /  34669.3 hPa ENE 9.3 mph /  15 km/h 9.3 mph /  15 km/h 76 % 0.0 in /  0 mm
18:25 21.6 °F /  -5.8 °C 17.2 °F /  -8.2 °C 1023.9 in /  34669.3 hPa East 13.0 mph /  20.9 km/h 13.0 mph /  20.9 km/h 76 % 0.0 in /  0 mm
18:30 21.6 °F /  -5.8 °C 17.2 °F /  -8.2 °C 1023.9 in /  34669.3 hPa ENE 7.4 mph /  11.9 km/h 7.4 mph /  11.9 km/h 76 % 0.0 in /  0 mm
18:35 21.6 °F /  -5.8 °C 17.4 °F /  -8.1 °C 1023.9 in /  34669.3 hPa East 6.9 mph /  11.1 km/h 6.9 mph /  11.1 km/h 77 % 0.0 in /  0 mm
18:40 21.5 °F /  -5.8 °C 17.3 °F /  -8.2 °C 1023.9 in /  34669.3 hPa East 9.3 mph /  15 km/h 9.3 mph /  15 km/h 77 % 0.0 in /  0 mm
18:45 21.5 °F /  -5.8 °C 17.3 °F /  -8.2 °C 1022.9 in /  34635.4 hPa ENE 9.3 mph /  15 km/h 9.3 mph /  15 km/h 77 % 0.0 in /  0 mm
18:50 21.5 °F /  -5.8 °C 17.3 °F /  -8.2 °C 1022.9 in /  34635.4 hPa NNE 7.4 mph /  11.9 km/h 7.4 mph /  11.9 km/h 77 % 0.0 in /  0 mm
18:55 21.4 °F /  -5.9 °C 17.4 °F /  -8.1 °C 1022.9 in /  34635.4 hPa ESE 9.3 mph /  15 km/h 9.3 mph /  15 km/h 78 % 0.0 in /  0 mm
19:00 21.4 °F /  -5.9 °C 17.4 °F /  -8.1 °C 1022.9 in /  34635.4 hPa NE 9.3 mph /  15 km/h 9.3 mph /  15 km/h 78 % 0.0 in /  0 mm
19:05 21.3 °F /  -5.9 °C 17.3 °F /  -8.2 °C 1022.9 in /  34635.4 hPa ESE 9.3 mph /  15 km/h 9.3 mph /  15 km/h 78 % 0.0 in /  0 mm
19:10 21.3 °F /  -5.9 °C 17.3 °F /  -8.2 °C 1022.9 in /  34635.4 hPa SE 5.3 mph /  8.5 km/h 5.3 mph /  8.5 km/h 78 % 0.0 in /  0 mm
19:15 21.3 °F /  -5.9 °C 17.3 °F /  -8.2 °C 1023.9 in /  34669.3 hPa East 5.6 mph /  9 km/h 5.6 mph /  9 km/h 78 % 0.0 in /  0 mm
19:20 19.5 °F /  -6.9 °C 17.1 °F /  -8.3 °C 1023.9 in /  34669.3 hPa Calm     86 % 0.0 in /  0 mm
19:25 21.3 °F /  -5.9 °C 17.5 °F /  -8.1 °C 1023.9 in /  34669.3 hPa ESE 5.8 mph /  9.3 km/h 5.8 mph /  9.3 km/h 79 % 0.0 in /  0 mm
19:30 21.3 °F /  -5.9 °C 17.5 °F /  -8.1 °C 1023.9 in /  34669.3 hPa NNE 1.9 mph /  3.1 km/h   79 % 0.0 in /  0 mm
19:35 21.2 °F /  -6 °C 17.4 °F /  -8.1 °C 1023.9 in /  34669.3 hPa SE 3.7 mph /  6 km/h 3.7 mph /  6 km/h 79 % 0.0 in /  0 mm
19:40 21.3 °F /  -5.9 °C 17.5 °F /  -8.1 °C 1023.9 in /  34669.3 hPa Calm     79 % 0.0 in /  0 mm
19:50 21.2 °F /  -6 °C 17.2 °F /  -8.2 °C 1023.9 in /  34669.3 hPa WSW 5.8 mph /  9.3 km/h 5.8 mph /  9.3 km/h 78 % 0.0 in /  0 mm
19:55 21.2 °F /  -6 °C 17.2 °F /  -8.2 °C 1023.9 in /  34669.3 hPa SW 1.9 mph /  3.1 km/h   78 % 0.0 in /  0 mm
20:00 21.2 °F /  -6 °C 17.0 °F /  -8.3 °C 1022.9 in /  34635.4 hPa SW 3.7 mph /  6 km/h 3.7 mph /  6 km/h 77 % 0.0 in /  0 mm
20:05 21.1 °F /  -6.1 °C 16.9 °F /  -8.4 °C 1022.9 in /  34635.4 hPa SW 5.0 mph /  8 km/h 5.0 mph /  8 km/h 77 % 0.0 in /  0 mm
20:10 21.1 °F /  -6.1 °C 16.9 °F /  -8.4 °C 1022.9 in /  34635.4 hPa SW 2.6 mph /  4.2 km/h   77 % 0.0 in /  0 mm
20:15 21.0 °F /  -6.1 °C 16.8 °F /  -8.4 °C 1023.9 in /  34669.3 hPa SW 2.6 mph /  4.2 km/h 2.6 mph /  4.2 km/h 77 % 0.0 in /  0 mm
20:20 20.9 °F /  -6.2 °C 16.9 °F /  -8.4 °C 1023.9 in /  34669.3 hPa SW 1.9 mph /  3.1 km/h   78 % 0.0 in /  0 mm
20:25 20.8 °F /  -6.2 °C 16.8 °F /  -8.4 °C 1023.9 in /  34669.3 hPa Calm     78 % 0.0 in /  0 mm
20:30 20.8 °F /  -6.2 °C 16.8 °F /  -8.4 °C 1023.9 in /  34669.3 hPa SW 3.7 mph /  6 km/h 3.7 mph /  6 km/h 78 % 0.0 in /  0 mm
20:35 20.7 °F /  -6.3 °C 16.7 °F /  -8.5 °C 1023.9 in /  34669.3 hPa Calm     78 % 0.0 in /  0 mm
20:40 20.6 °F /  -6.3 °C 16.8 °F /  -8.4 °C 1023.9 in /  34669.3 hPa Calm     79 % 0.0 in /  0 mm
20:45 20.5 °F /  -6.4 °C 16.7 °F /  -8.5 °C 1022.9 in /  34635.4 hPa Calm     79 % 0.0 in /  0 mm
20:50 20.4 °F /  -6.4 °C 16.6 °F /  -8.6 °C 1022.9 in /  34635.4 hPa Calm     79 % 0.0 in /  0 mm
20:55 20.4 °F /  -6.4 °C 16.6 °F /  -8.6 °C 1022.9 in /  34635.4 hPa Calm     79 % 0.0 in /  0 mm
21:00 20.3 °F /  -6.5 °C 16.6 °F /  -8.6 °C 1023.9 in /  34669.3 hPa Calm     79 % 0.0 in /  0 mm
21:05 20.2 °F /  -6.6 °C 16.6 °F /  -8.6 °C 1023.9 in /  34669.3 hPa Calm     80 % 0.0 in /  0 mm
21:08 20.2 °F /  -6.6 °C 16.6 °F /  -8.6 °C 1023.9 in /  34669.3 hPa Calm     80 % 0.0 in /  0 mm
21:10 19.3 °F /  -7.1 °C 17.1 °F /  -8.3 °C 1023.9 in /  34669.3 hPa Calm     87 % 0.0 in /  0 mm
21:13 20.2 °F /  -6.6 °C 16.6 °F /  -8.6 °C 1023.9 in /  34669.3 hPa Calm     80 % 0.0 in /  0 mm
21:18 20.2 °F /  -6.6 °C 16.6 °F /  -8.6 °C 1023.9 in /  34669.3 hPa Calm     80 % 0.0 in /  0 mm
21:20 19.2 °F /  -7.1 °C 17.0 °F /  -8.3 °C 1022.9 in /  34635.4 hPa Calm     87 % 0.0 in /  0 mm
21:23 20.2 °F /  -6.6 °C 16.8 °F /  -8.4 °C 1023.9 in /  34669.3 hPa Calm     81 % 0.0 in /  0 mm
21:28 20.4 °F /  -6.4 °C 17.1 °F /  -8.3 °C 1023.9 in /  34669.3 hPa ESE 1.9 mph /  3.1 km/h   81 % 0.0 in /  0 mm
21:30 19.1 °F /  -7.2 °C 16.9 °F /  -8.4 °C 1022.9 in /  34635.4 hPa Calm     87 % 0.0 in /  0 mm
21:33 20.3 °F /  -6.5 °C 16.9 °F /  -8.4 °C 1023.9 in /  34669.3 hPa Calm     81 % 0.0 in /  0 mm
21:38 20.3 °F /  -6.5 °C 16.9 °F /  -8.4 °C 1023.9 in /  34669.3 hPa Calm     81 % 0.0 in /  0 mm
21:40 19.1 °F /  -7.2 °C 16.9 °F /  -8.4 °C 1022.9 in /  34635.4 hPa SW 3.2 mph /  5.1 km/h 3.2 mph /  5.1 km/h 87 % 0.0 in /  0 mm
21:43 20.3 °F /  -6.5 °C 16.9 °F /  -8.4 °C 1023.9 in /  34669.3 hPa East 4.2 mph /  6.8 km/h 4.2 mph /  6.8 km/h 81 % 0.0 in /  0 mm
21:48 20.2 °F /  -6.6 °C 16.8 °F /  -8.4 °C 1023.9 in /  34669.3 hPa ENE 1.9 mph /  3.1 km/h 2.3 mph /  3.7 km/h 81 % 0.0 in /  0 mm
21:50 19.0 °F /  -7.2 °C 16.8 °F /  -8.4 °C 1022.9 in /  34635.4 hPa Calm   3.2 mph /  5.1 km/h 87 % 0.0 in /  0 mm
21:53 20.1 °F /  -6.6 °C 16.7 °F /  -8.5 °C 1023.9 in /  34669.3 hPa East 3.7 mph /  6 km/h 3.7 mph /  6 km/h 81 % 0.0 in /  0 mm
21:54 20.1 °F /  -6.6 °C 16.7 °F /  -8.5 °C 1023.9 in /  34669.3 hPa East 3.7 mph /  6 km/h 3.7 mph /  6 km/h 81 % 0.0 in /  0 mm
21:59 20.1 °F /  -6.6 °C 16.7 °F /  -8.5 °C 1023.9 in /  34669.3 hPa East 3.7 mph /  6 km/h 3.7 mph /  6 km/h 81 % 0.0 in /  0 mm
22:00 18.8 °F /  -7.3 °C 16.8 °F /  -8.4 °C 1022.9 in /  34635.4 hPa WSW 1.6 mph /  2.6 km/h 4.8 mph /  7.7 km/h 88 % 0.0 in /  0 mm
22:04 20.0 °F /  -6.7 °C 16.8 °F /  -8.4 °C 1023.9 in /  34669.3 hPa South 1.9 mph /  3.1 km/h   82 % 0.0 in /  0 mm
22:10 18.6 °F /  -7.4 °C 16.6 °F /  -8.6 °C 1022.9 in /  34635.4 hPa WSW 1.6 mph /  2.6 km/h 4.8 mph /  7.7 km/h 88 % 0.0 in /  0 mm
22:14 19.7 °F /  -6.8 °C 16.6 °F /  -8.6 °C 1023.9 in /  34669.3 hPa Calm     82 % 0.0 in /  0 mm
22:19 19.7 °F /  -6.8 °C 16.6 °F /  -8.6 °C 1023.9 in /  34669.3 hPa SE 1.9 mph /  3.1 km/h   82 % 0.0 in /  0 mm
22:20 18.3 °F /  -7.6 °C 16.3 °F /  -8.7 °C 1022.9 in /  34635.4 hPa WSW 1.6 mph /  2.6 km/h 3.2 mph /  5.1 km/h 88 % 0.0 in /  0 mm
22:24 19.8 °F /  -6.8 °C 16.8 °F /  -8.4 °C 1023.9 in /  34669.3 hPa Calm     83 % 0.0 in /  0 mm
22:30 18.2 °F /  -7.7 °C 16.2 °F /  -8.8 °C 1021.9 in /  34601.5 hPa WSW 1.6 mph /  2.6 km/h 3.2 mph /  5.1 km/h 88 % 0.0 in /  0 mm
22:34 19.5 °F /  -6.9 °C 16.6 °F /  -8.6 °C 1024.9 in /  34703.1 hPa Calm     83 % 0.0 in /  0 mm
22:39 19.5 °F /  -6.9 °C 16.6 °F /  -8.6 °C 1024.9 in /  34703.1 hPa Calm     83 % 0.0 in /  0 mm
22:40 18.1 °F /  -7.7 °C 16.1 °F /  -8.8 °C 1021.9 in /  34601.5 hPa WSW 3.2 mph /  5.1 km/h 4.8 mph /  7.7 km/h 88 % 0.0 in /  0 mm
22:44 19.5 °F /  -6.9 °C 16.6 °F /  -8.6 °C 1024.9 in /  34703.1 hPa Calm     83 % 0.0 in /  0 mm
22:49 19.4 °F /  -7 °C 16.6 °F /  -8.6 °C 1024.9 in /  34703.1 hPa Calm     84 % 0.0 in /  0 mm
22:50 18.0 °F /  -7.8 °C 16.0 °F /  -8.9 °C 1021.9 in /  34601.5 hPa WSW 1.6 mph /  2.6 km/h 4.8 mph /  7.7 km/h 88 % 0.0 in /  0 mm
22:54 19.4 °F /  -7 °C 16.6 °F /  -8.6 °C 1024.9 in /  34703.1 hPa Calm     84 % 0.0 in /  0 mm
22:59 19.3 °F /  -7.1 °C 16.5 °F /  -8.6 °C 1024.9 in /  34703.1 hPa Calm     84 % 0.0 in /  0 mm
23:04 19.4 °F /  -7 °C 16.6 °F /  -8.6 °C 1024.9 in /  34703.1 hPa East 1.9 mph /  3.1 km/h   84 % 0.0 in /  0 mm
23:09 19.4 °F /  -7 °C 16.8 °F /  -8.4 °C 1024.9 in /  34703.1 hPa Calm     85 % 0.0 in /  0 mm
23:10 17.6 °F /  -8 °C 15.6 °F /  -9.1 °C 1021.9 in /  34601.5 hPa WSW 1.6 mph /  2.6 km/h 4.8 mph /  7.7 km/h 88 % 0.0 in /  0 mm
23:14 19.4 °F /  -7 °C 16.8 °F /  -8.4 °C 1024.9 in /  34703.1 hPa Calm     85 % 0.0 in /  0 mm
23:20 17.6 °F /  -8 °C 15.4 °F /  -9.2 °C 1021.9 in /  34601.5 hPa WSW 1.6 mph /  2.6 km/h 3.2 mph /  5.1 km/h 87 % 0.0 in /  0 mm
23:24 19.3 °F /  -7.1 °C 16.7 °F /  -8.5 °C 1023.9 in /  34669.3 hPa ENE 2.6 mph /  4.2 km/h   85 % 0.0 in /  0 mm
23:29 19.3 °F /  -7.1 °C 16.7 °F /  -8.5 °C 1023.9 in /  34669.3 hPa Calm     85 % 0.0 in /  0 mm
23:30 17.5 °F /  -8.1 °C 15.3 °F /  -9.3 °C 1021.9 in /  34601.5 hPa Calm   1.6 mph /  2.6 km/h 87 % 0.0 in /  0 mm
23:34 19.3 °F /  -7.1 °C 16.9 °F /  -8.4 °C 1023.9 in /  34669.3 hPa Calm     86 % 0.0 in /  0 mm
23:39 19.4 °F /  -7 °C 17.0 °F /  -8.3 °C 1023.9 in /  34669.3 hPa Calm     86 % 0.0 in /  0 mm
23:40 17.5 °F /  -8.1 °C 15.3 °F /  -9.3 °C 1021.9 in /  34601.5 hPa Calm   3.2 mph /  5.1 km/h 87 % 0.0 in /  0 mm
23:44 19.4 °F /  -7 °C 17.0 °F /  -8.3 °C 1023.9 in /  34669.3 hPa Calm     86 % 0.0 in /  0 mm
23:49 19.4 °F /  -7 °C 17.0 °F /  -8.3 °C 1023.9 in /  34669.3 hPa Calm     86 % 0.0 in /  0 mm
23:50 17.3 °F /  -8.2 °C 15.1 °F /  -9.4 °C 1021.9 in /  34601.5 hPa Calm     87 % 0.0 in /  0 mm
23:54 19.4 °F /  -7 °C 17.0 °F /  -8.3 °C 1023.9 in /  34669.3 hPa Calm     86 % 0.0 in /  0 mm
23:59 19.4 °F /  -7 °C 17.0 °F /  -8.3 °C 1024.9 in /  34703.1 hPa Calm     86 % 0.0 in /  0 mm
Meteo Sesrovires
Elogis d' Weather Underground - 2 mb

Guio original per  Jim McMurry - jmcmurry@mwt.net Adaptat per a la plantilla per  Wim van der Kuil - Leuven-Template.eu

Trobareu la nostra informacio del temps tambe a:

Weather Underground

AWEKAS